^^
Saratoga-Weather Station Historical Data
Daily Summary for April 12, 2021 Units:  Both    English   Metric
Daily Weekly Monthly Yearly Custom
  High: Low: Average:
Temperature: 75.6 °F /  24.2 °C 62.8 °F /  17.1 °C 68.4 °F /  20.2 °C
Dew Point: 61.9 °F /  16.6 °C 58.1 °F /  14.5 °C 60.1 °F /  15.6 °C
Humidity: 89% 57% 76%
Wind Speed: 12.1mph /  19.5km/h - 3.9mph /  6.3km/h
Wind Gust: 15mph /  24.1km/h - -
Wind- - West
Pressure: 30.1 in /  1019.6 hPa 30.1 in /  1018.0 hPa -
Precipitation: 0 in /  0.0 mm    
Historical Graphs
 
 
Tabular Data for April 12, 2021
Time Temperature Dew Point Pressure Wind Wind Speed Wind Gust Humidity Rainfall Rate (Hourly) solar
00:00 70 °F /  21.1 °C 61.7 °F /  16.5 °C 30.1in /  1018.3hPa West 2.9mph /  4.7km/h 9mph /  14.5km/h 75% 0in /  0.0mm 0 W/m2
00:05 69.8 °F /  21 °C 61.5 °F /  16.4 °C 30.1in /  1018.3hPa WSW 4mph /  6.4km/h 8mph /  12.9km/h 75% 0in /  0.0mm 0 W/m2
00:10 69.6 °F /  20.9 °C 61.7 °F /  16.5 °C 30.1in /  1018.3hPa West 4mph /  6.4km/h 9mph /  14.5km/h 76% 0in /  0.0mm 0 W/m2
00:15 69.4 °F /  20.8 °C 61.5 °F /  16.4 °C 30.1in /  1018.3hPa WSW 4mph /  6.4km/h 7mph /  11.3km/h 76% 0in /  0.0mm 0 W/m2
00:20 69.3 °F /  20.7 °C 61.3 °F /  16.3 °C 30.1in /  1018.3hPa WNW 4mph /  6.4km/h 7mph /  11.3km/h 76% 0in /  0.0mm 0 W/m2
00:25 69.1 °F /  20.6 °C 61.2 °F /  16.2 °C 30.1in /  1018.3hPa WSW 4mph /  6.4km/h 6mph /  9.7km/h 76% 0in /  0.0mm 0 W/m2
00:30 68.9 °F /  20.5 °C 61 °F /  16.1 °C 30.1in /  1018.3hPa West 4mph /  6.4km/h 6mph /  9.7km/h 76% 0in /  0.0mm 0 W/m2
00:35 68.9 °F /  20.5 °C 61 °F /  16.1 °C 30.1in /  1018.3hPa WSW 2.9mph /  4.7km/h 4mph /  6.4km/h 76% 0in /  0.0mm 0 W/m2
00:40 68.7 °F /  20.4 °C 60.8 °F /  16 °C 30.1in /  1018.3hPa West 2.9mph /  4.7km/h 4mph /  6.4km/h 76% 0in /  0.0mm 0 W/m2
00:45 68.7 °F /  20.4 °C 60.8 °F /  16 °C 30.1in /  1018.3hPa West 6mph /  9.7km/h 6mph /  9.7km/h 76% 0in /  0.0mm 0 W/m2
00:50 68.5 °F /  20.3 °C 60.6 °F /  15.9 °C 30.1in /  1018.3hPa West 2.9mph /  4.7km/h 6mph /  9.7km/h 76% 0in /  0.0mm 0 W/m2
00:55 68.5 °F /  20.3 °C 61 °F /  16.1 °C 30.1in /  1018.6hPa West 2.9mph /  4.7km/h 4mph /  6.4km/h 77% 0in /  0.0mm 0 W/m2
01:00 68.4 °F /  20.2 °C 60.8 °F /  16 °C 30.1in /  1018.3hPa West 4mph /  6.4km/h 7mph /  11.3km/h 77% 0in /  0.0mm 0 W/m2
01:05 68.2 °F /  20.1 °C 60.6 °F /  15.9 °C 30.1in /  1018.3hPa West 2.9mph /  4.7km/h 3mph /  4.8km/h 77% 0in /  0.0mm 0 W/m2
01:10 68 °F /  20 °C 60.4 °F /  15.8 °C 30.1in /  1018.3hPa West 2.9mph /  4.7km/h 7mph /  11.3km/h 77% 0in /  0.0mm 0 W/m2
01:15 67.8 °F /  19.9 °C 60.3 °F /  15.7 °C 30.1in /  1018.6hPa West 2mph /  3.2km/h 7mph /  11.3km/h 77% 0in /  0.0mm 0 W/m2
01:20 67.8 °F /  19.9 °C 60.3 °F /  15.7 °C 30.1in /  1018.3hPa West 4mph /  6.4km/h 4mph /  6.4km/h 77% 0in /  0.0mm 0 W/m2
01:25 67.6 °F /  19.8 °C 60.3 °F /  15.7 °C 30.1in /  1018.3hPa West 2.9mph /  4.7km/h 4mph /  6.4km/h 77% 0in /  0.0mm 0 W/m2
01:30 67.6 °F /  19.8 °C 60.3 °F /  15.7 °C 30.1in /  1018.3hPa WSW 2.9mph /  4.7km/h 5mph /  8km/h 77% 0in /  0.0mm 0 W/m2
01:35 67.6 °F /  19.8 °C 60.6 °F /  15.9 °C 30.1in /  1018.3hPa WNW 2.9mph /  4.7km/h 6mph /  9.7km/h 78% 0in /  0.0mm 0 W/m2
01:40 67.5 °F /  19.7 °C 60.4 °F /  15.8 °C 30.1in /  1018.3hPa West 2mph /  3.2km/h 4mph /  6.4km/h 78% 0in /  0.0mm 0 W/m2
01:45 67.5 °F /  19.7 °C 60.4 °F /  15.8 °C 30.1in /  1018.3hPa WNW 2mph /  3.2km/h 3mph /  4.8km/h 78% 0in /  0.0mm 0 W/m2
01:50 67.5 °F /  19.7 °C 60.4 °F /  15.8 °C 30.1in /  1018.3hPa West 2mph /  3.2km/h 4mph /  6.4km/h 78% 0in /  0.0mm 0 W/m2
01:55 67.5 °F /  19.7 °C 60.1 °F /  15.6 °C 30.1in /  1018.3hPa WSW 2.9mph /  4.7km/h 5mph /  8km/h 77% 0in /  0.0mm 0 W/m2
02:00 67.5 °F /  19.7 °C 60.1 °F /  15.6 °C 30.1in /  1018.3hPa West 4mph /  6.4km/h 8mph /  12.9km/h 77% 0in /  0.0mm 0 W/m2
02:05 67.5 °F /  19.7 °C 60.4 °F /  15.8 °C 30.1in /  1018.3hPa West 4mph /  6.4km/h 6mph /  9.7km/h 78% 0in /  0.0mm 0 W/m2
02:10 67.3 °F /  19.6 °C 60.3 °F /  15.7 °C 30.1in /  1018.3hPa WNW 2mph /  3.2km/h 6mph /  9.7km/h 78% 0in /  0.0mm 0 W/m2
02:15 67.1 °F /  19.5 °C 60.1 °F /  15.6 °C 30.1in /  1018.3hPa West 4mph /  6.4km/h 6mph /  9.7km/h 78% 0in /  0.0mm 0 W/m2
02:20 67.1 °F /  19.5 °C 60.1 °F /  15.6 °C 30.1in /  1018.3hPa West 2mph /  3.2km/h 6mph /  9.7km/h 78% 0in /  0.0mm 0 W/m2
02:25 66.9 °F /  19.4 °C 60.3 °F /  15.7 °C 30.1in /  1018.3hPa West 2.9mph /  4.7km/h 4mph /  6.4km/h 79% 0in /  0.0mm 0 W/m2
02:30 66.7 °F /  19.3 °C 60.1 °F /  15.6 °C 30.1in /  1018.3hPa West 4mph /  6.4km/h 5mph /  8km/h 79% 0in /  0.0mm 0 W/m2
02:35 66.7 °F /  19.3 °C 60.1 °F /  15.6 °C 30.1in /  1018.3hPa WSW 4.9mph /  7.9km/h 6mph /  9.7km/h 79% 0in /  0.0mm 0 W/m2
02:40 66.6 °F /  19.2 °C 59.9 °F /  15.5 °C 30.1in /  1018.3hPa West 2.9mph /  4.7km/h 4mph /  6.4km/h 79% 0in /  0.0mm 0 W/m2
02:45 66.6 °F /  19.2 °C 59.9 °F /  15.5 °C 30.1in /  1018.3hPa West 2.9mph /  4.7km/h 4mph /  6.4km/h 79% 0in /  0.0mm 0 W/m2
02:50 66.6 °F /  19.2 °C 59.9 °F /  15.5 °C 30.1in /  1018.3hPa West 2mph /  3.2km/h 4mph /  6.4km/h 79% 0in /  0.0mm 0 W/m2
02:55 66.4 °F /  19.1 °C 60.1 °F /  15.6 °C 30.1in /  1018.3hPa West 2.9mph /  4.7km/h 7mph /  11.3km/h 80% 0in /  0.0mm 0 W/m2
03:00 66.4 °F /  19.1 °C 60.1 °F /  15.6 °C 30.1in /  1018.3hPa West 2mph /  3.2km/h 4mph /  6.4km/h 80% 0in /  0.0mm 0 W/m2
03:05 66.2 °F /  19 °C 59.9 °F /  15.5 °C 30.1in /  1018.3hPa WSW 0.9mph /  1.4km/h 7mph /  11.3km/h 80% 0in /  0.0mm 0 W/m2
03:10 66 °F /  18.9 °C 59.7 °F /  15.4 °C 30.1in /  1018.3hPa WSW 2mph /  3.2km/h 3mph /  4.8km/h 80% 0in /  0.0mm 0 W/m2
03:15 65.8 °F /  18.8 °C 59.9 °F /  15.5 °C 30.1in /  1018.0hPa West 4mph /  6.4km/h 4mph /  6.4km/h 81% 0in /  0.0mm 0 W/m2
03:20 65.8 °F /  18.8 °C 59.9 °F /  15.5 °C 30.1in /  1018.0hPa West 2mph /  3.2km/h 4mph /  6.4km/h 81% 0in /  0.0mm 0 W/m2
03:25 65.8 °F /  18.8 °C 59.9 °F /  15.5 °C 30.1in /  1018.0hPa West 2mph /  3.2km/h 4mph /  6.4km/h 81% 0in /  0.0mm 0 W/m2
03:30 65.7 °F /  18.7 °C 60.1 °F /  15.6 °C 30.1in /  1018.0hPa West 2.9mph /  4.7km/h 3mph /  4.8km/h 82% 0in /  0.0mm 0 W/m2
03:35 65.7 °F /  18.7 °C 60.1 °F /  15.6 °C 30.1in /  1018.0hPa Calm   4mph /  6.4km/h 82% 0in /  0.0mm 0 W/m2
03:40 65.5 °F /  18.6 °C 59.9 °F /  15.5 °C 30.1in /  1018.0hPa West 0.9mph /  1.4km/h 1mph /  1.6km/h 82% 0in /  0.0mm 0 W/m2
03:45 65.5 °F /  18.6 °C 59.9 °F /  15.5 °C 30.1in /  1018.3hPa West 0.9mph /  1.4km/h 1mph /  1.6km/h 82% 0in /  0.0mm 0 W/m2
03:50 64.9 °F /  18.3 °C 59.7 °F /  15.4 °C 30.1in /  1018.0hPa West 2mph /  3.2km/h 2mph /  3.2km/h 83% 0in /  0.0mm 0 W/m2
03:55 64.8 °F /  18.2 °C 59.5 °F /  15.3 °C 30.1in /  1018.0hPa West 2mph /  3.2km/h 2mph /  3.2km/h 83% 0in /  0.0mm 0 W/m2
04:00 64.6 °F /  18.1 °C 59.7 °F /  15.4 °C 30.1in /  1018.0hPa West 0.9mph /  1.4km/h 3mph /  4.8km/h 84% 0in /  0.0mm 0 W/m2
04:05 64.6 °F /  18.1 °C 59.7 °F /  15.4 °C 30.1in /  1018.0hPa WSW 0.9mph /  1.4km/h 2mph /  3.2km/h 84% 0in /  0.0mm 0 W/m2
04:10 64.6 °F /  18.1 °C 59.7 °F /  15.4 °C 30.1in /  1018.0hPa WSW 0.9mph /  1.4km/h 2mph /  3.2km/h 84% 0in /  0.0mm 0 W/m2
04:15 64.4 °F /  18 °C 59.5 °F /  15.3 °C 30.1in /  1018.0hPa West 2mph /  3.2km/h 2mph /  3.2km/h 84% 0in /  0.0mm 0 W/m2
04:20 64 °F /  17.8 °C 59.4 °F /  15.2 °C 30.1in /  1018.0hPa WNW 0.9mph /  1.4km/h 3mph /  4.8km/h 85% 0in /  0.0mm 0 W/m2
04:25 63.9 °F /  17.7 °C 59.2 °F /  15.1 °C 30.1in /  1018.0hPa Calm   4mph /  6.4km/h 85% 0in /  0.0mm 0 W/m2
04:30 63.9 °F /  17.7 °C 59.5 °F /  15.3 °C 30.1in /  1018.0hPa Calm   1mph /  1.6km/h 86% 0in /  0.0mm 0 W/m2
04:35 63.7 °F /  17.6 °C 59.4 °F /  15.2 °C 30.1in /  1018.0hPa Calm   4mph /  6.4km/h 86% 0in /  0.0mm 0 W/m2
04:40 63.3 °F /  17.4 °C 59 °F /  15 °C 30.1in /  1018.0hPa WNW 0.9mph /  1.4km/h 2mph /  3.2km/h 86% 0in /  0.0mm 0 W/m2
04:45 63.1 °F /  17.3 °C 58.8 °F /  14.9 °C 30.1in /  1018.3hPa Calm   1mph /  1.6km/h 86% 0in /  0.0mm 0 W/m2
04:50 63.1 °F /  17.3 °C 59.2 °F /  15.1 °C 30.1in /  1018.3hPa WNW 2mph /  3.2km/h 2mph /  3.2km/h 87% 0in /  0.0mm 0 W/m2
04:55 62.8 °F /  17.1 °C 58.8 °F /  14.9 °C 30.1in /  1018.3hPa WNW 0.9mph /  1.4km/h 2mph /  3.2km/h 87% 0in /  0.0mm 0 W/m2
05:01 62.8 °F /  17.1 °C 59.2 °F /  15.1 °C 30.1in /  1018.3hPa WNW 2mph /  3.2km/h 3mph /  4.8km/h 88% 0in /  0.0mm 0 W/m2
05:06 62.8 °F /  17.1 °C 59.2 °F /  15.1 °C 30.1in /  1018.3hPa West 2mph /  3.2km/h 6mph /  9.7km/h 88% 0in /  0.0mm 0 W/m2
05:11 63 °F /  17.2 °C 59.4 °F /  15.2 °C 30.1in /  1018.3hPa West 2.9mph /  4.7km/h 4mph /  6.4km/h 88% 0in /  0.0mm 0 W/m2
05:16 63 °F /  17.2 °C 59.4 °F /  15.2 °C 30.1in /  1018.6hPa WNW 2.9mph /  4.7km/h 4mph /  6.4km/h 88% 0in /  0.0mm 0 W/m2
05:21 63 °F /  17.2 °C 59.4 °F /  15.2 °C 30.1in /  1018.3hPa WNW 0.9mph /  1.4km/h 4mph /  6.4km/h 88% 0in /  0.0mm 0 W/m2
05:26 63.1 °F /  17.3 °C 59.5 °F /  15.3 °C 30.1in /  1018.3hPa West 2mph /  3.2km/h 6mph /  9.7km/h 88% 0in /  0.0mm 0 W/m2
05:31 63 °F /  17.2 °C 59.4 °F /  15.2 °C 30.1in /  1018.3hPa WNW 2mph /  3.2km/h 4mph /  6.4km/h 88% 0in /  0.0mm 0 W/m2
05:36 63 °F /  17.2 °C 59.4 °F /  15.2 °C 30.1in /  1018.3hPa WNW 2.9mph /  4.7km/h 4mph /  6.4km/h 88% 0in /  0.0mm 0 W/m2
05:41 63 °F /  17.2 °C 59.4 °F /  15.2 °C 30.1in /  1018.3hPa West 2.9mph /  4.7km/h 4mph /  6.4km/h 88% 0in /  0.0mm 5 W/m2
05:46 63 °F /  17.2 °C 59.4 °F /  15.2 °C 30.1in /  1018.6hPa West 2.9mph /  4.7km/h 7mph /  11.3km/h 88% 0in /  0.0mm 7 W/m2
05:51 63 °F /  17.2 °C 59.4 °F /  15.2 °C 30.1in /  1018.6hPa West 2.9mph /  4.7km/h 7mph /  11.3km/h 88% 0in /  0.0mm 11 W/m2
05:56 62.8 °F /  17.1 °C 59.2 °F /  15.1 °C 30.1in /  1018.6hPa WSW 4mph /  6.4km/h 4mph /  6.4km/h 88% 0in /  0.0mm 14 W/m2
06:01 62.8 °F /  17.1 °C 59.2 °F /  15.1 °C 30.1in /  1018.6hPa Calm   2mph /  3.2km/h 88% 0in /  0.0mm 19 W/m2
06:06 62.8 °F /  17.1 °C 59.2 °F /  15.1 °C 30.1in /  1018.6hPa West 2.9mph /  4.7km/h 4mph /  6.4km/h 88% 0in /  0.0mm 25 W/m2
06:11 62.8 °F /  17.1 °C 59.5 °F /  15.3 °C 30.1in /  1018.6hPa West 2mph /  3.2km/h 4mph /  6.4km/h 89% 0in /  0.0mm 28 W/m2
06:16 62.8 °F /  17.1 °C 59.5 °F /  15.3 °C 30.1in /  1018.6hPa WNW 2mph /  3.2km/h 2mph /  3.2km/h 89% 0in /  0.0mm 30 W/m2
06:21 63 °F /  17.2 °C 59.7 °F /  15.4 °C 30.1in /  1019.0hPa WNW 2mph /  3.2km/h 3mph /  4.8km/h 89% 0in /  0.0mm 28 W/m2
06:26 63.1 °F /  17.3 °C 59.9 °F /  15.5 °C 30.1in /  1019.0hPa West 2mph /  3.2km/h 3mph /  4.8km/h 89% 0in /  0.0mm 28 W/m2
06:31 63.1 °F /  17.3 °C 59.5 °F /  15.3 °C 30.1in /  1019.0hPa West 2.9mph /  4.7km/h 3mph /  4.8km/h 88% 0in /  0.0mm 30 W/m2
06:36 63.1 °F /  17.3 °C 59.5 °F /  15.3 °C 30.1in /  1019.0hPa WSW 2.9mph /  4.7km/h 4mph /  6.4km/h 88% 0in /  0.0mm 32 W/m2
06:41 63.3 °F /  17.4 °C 59.7 °F /  15.4 °C 30.1in /  1019.0hPa West 2.9mph /  4.7km/h 3mph /  4.8km/h 88% 0in /  0.0mm 35 W/m2
06:46 63.3 °F /  17.4 °C 59.7 °F /  15.4 °C 30.1in /  1019.0hPa West 2mph /  3.2km/h 2mph /  3.2km/h 88% 0in /  0.0mm 44 W/m2
06:51 63.5 °F /  17.5 °C 60.3 °F /  15.7 °C 30.1in /  1019.0hPa WSW 0.9mph /  1.4km/h 4mph /  6.4km/h 89% 0in /  0.0mm 49 W/m2
06:56 63.7 °F /  17.6 °C 60.4 °F /  15.8 °C 30.1in /  1019.0hPa WSW 0.9mph /  1.4km/h 2mph /  3.2km/h 89% 0in /  0.0mm 32 W/m2
07:01 63.7 °F /  17.6 °C 60.1 °F /  15.6 °C 30.1in /  1019.0hPa Calm   4mph /  6.4km/h 88% 0in /  0.0mm 30 W/m2
07:06 63.9 °F /  17.7 °C 60.3 °F /  15.7 °C 30.1in /  1018.6hPa Calm     88% 0in /  0.0mm 35 W/m2
07:11 64 °F /  17.8 °C 60.4 °F /  15.8 °C 30.1in /  1019.0hPa Calm   1mph /  1.6km/h 88% 0in /  0.0mm 37 W/m2
07:16 64.2 °F /  17.9 °C 60.3 °F /  15.7 °C 30.1in /  1019.0hPa NW 0.9mph /  1.4km/h 2mph /  3.2km/h 87% 0in /  0.0mm 39 W/m2
07:21 64.4 °F /  18 °C 60.4 °F /  15.8 °C 30.1in /  1019.0hPa WNW 2mph /  3.2km/h 3mph /  4.8km/h 87% 0in /  0.0mm 40 W/m2
07:26 64.8 °F /  18.2 °C 60.8 °F /  16 °C 30.1in /  1019.0hPa WNW 0.9mph /  1.4km/h 3mph /  4.8km/h 87% 0in /  0.0mm 42 W/m2
07:31 65.1 °F /  18.4 °C 60.8 °F /  16 °C 30.1in /  1019.0hPa NW 2.9mph /  4.7km/h 3mph /  4.8km/h 86% 0in /  0.0mm 47 W/m2
07:36 65.8 °F /  18.8 °C 61.2 °F /  16.2 °C 30.1in /  1019.0hPa WSW 4.9mph /  7.9km/h 8mph /  12.9km/h 85% 0in /  0.0mm 63 W/m2
07:41 66.2 °F /  19 °C 61.2 °F /  16.2 °C 30.1in /  1019.0hPa West 2.9mph /  4.7km/h 9mph /  14.5km/h 84% 0in /  0.0mm 130 W/m2
07:46 66.4 °F /  19.1 °C 61.3 °F /  16.3 °C 30.1in /  1019.0hPa WNW 6mph /  9.7km/h 10mph /  16.1km/h 84% 0in /  0.0mm 260 W/m2
07:51 66.6 °F /  19.2 °C 61.5 °F /  16.4 °C 30.1in /  1019.0hPa WSW 4mph /  6.4km/h 9mph /  14.5km/h 84% 0in /  0.0mm 285 W/m2
07:56 66.7 °F /  19.3 °C 61.3 °F /  16.3 °C 30.1in /  1019.0hPa NW 6mph /  9.7km/h 6mph /  9.7km/h 83% 0in /  0.0mm 288 W/m2
08:01 66.9 °F /  19.4 °C 61.5 °F /  16.4 °C 30.1in /  1019.0hPa West 4mph /  6.4km/h 10mph /  16.1km/h 83% 0in /  0.0mm 322 W/m2
08:06 67.1 °F /  19.5 °C 61.7 °F /  16.5 °C 30.1in /  1019.0hPa WSW 12.1mph /  19.5km/h 12mph /  19.3km/h 83% 0in /  0.0mm 306 W/m2
08:11 67.1 °F /  19.5 °C 61.7 °F /  16.5 °C 30.1in /  1019.0hPa SW 6mph /  9.7km/h 9mph /  14.5km/h 83% 0in /  0.0mm 225 W/m2
08:16 67.3 °F /  19.6 °C 61.9 °F /  16.6 °C 30.1in /  1019.0hPa NW 2.9mph /  4.7km/h 8mph /  12.9km/h 83% 0in /  0.0mm 149 W/m2
08:21 67.6 °F /  19.8 °C 61.5 °F /  16.4 °C 30.1in /  1019.0hPa WNW 6.9mph /  11.1km/h 9mph /  14.5km/h 81% 0in /  0.0mm 148 W/m2
08:26 67.6 °F /  19.8 °C 61.5 °F /  16.4 °C 30.1in /  1019.3hPa WNW 8.1mph /  13km/h 9mph /  14.5km/h 81% 0in /  0.0mm 151 W/m2
08:31 67.8 °F /  19.9 °C 61.7 °F /  16.5 °C 30.1in /  1019.3hPa West 6.9mph /  11.1km/h 9mph /  14.5km/h 81% 0in /  0.0mm 144 W/m2
08:36 68.2 °F /  20.1 °C 61.3 °F /  16.3 °C 30.1in /  1019.3hPa West 4mph /  6.4km/h 10mph /  16.1km/h 79% 0in /  0.0mm 125 W/m2
08:41 68.2 °F /  20.1 °C 61 °F /  16.1 °C 30.1in /  1019.3hPa West 6mph /  9.7km/h 13mph /  20.9km/h 78% 0in /  0.0mm 109 W/m2
08:46 68.2 °F /  20.1 °C 60.6 °F /  15.9 °C 30.1in /  1019.6hPa NW 4.9mph /  7.9km/h 10mph /  16.1km/h 77% 0in /  0.0mm 97 W/m2
08:51 68.2 °F /  20.1 °C 61 °F /  16.1 °C 30.1in /  1019.3hPa West 6mph /  9.7km/h 13mph /  20.9km/h 78% 0in /  0.0mm 104 W/m2
08:56 68.4 °F /  20.2 °C 60.4 °F /  15.8 °C 30.1in /  1019.3hPa West 6mph /  9.7km/h 6mph /  9.7km/h 76% 0in /  0.0mm 114 W/m2
09:01 68.5 °F /  20.3 °C 60.3 °F /  15.7 °C 30.1in /  1019.3hPa WNW 6.9mph /  11.1km/h 13mph /  20.9km/h 75% 0in /  0.0mm 132 W/m2
09:06 68.7 °F /  20.4 °C 60.4 °F /  15.8 °C 30.1in /  1019.3hPa West 2.9mph /  4.7km/h 4mph /  6.4km/h 75% 0in /  0.0mm 151 W/m2
09:11 68.9 °F /  20.5 °C 60.6 °F /  15.9 °C 30.1in /  1019.0hPa SSW 6mph /  9.7km/h 9mph /  14.5km/h 75% 0in /  0.0mm 230 W/m2
09:16 68.9 °F /  20.5 °C 60.6 °F /  15.9 °C 30.1in /  1019.3hPa WNW 2mph /  3.2km/h 7mph /  11.3km/h 75% 0in /  0.0mm 341 W/m2
09:21 68.7 °F /  20.4 °C 60.1 °F /  15.6 °C 30.1in /  1019.3hPa West 6.9mph /  11.1km/h 7mph /  11.3km/h 74% 0in /  0.0mm 371 W/m2
09:26 68.5 °F /  20.3 °C 60.3 °F /  15.7 °C 30.1in /  1019.3hPa WNW 4mph /  6.4km/h 8mph /  12.9km/h 75% 0in /  0.0mm 394 W/m2
09:31 68.7 °F /  20.4 °C 60.4 °F /  15.8 °C 30.1in /  1019.3hPa WNW 2mph /  3.2km/h 7mph /  11.3km/h 75% 0in /  0.0mm 446 W/m2
09:36 68.7 °F /  20.4 °C 60.1 °F /  15.6 °C 30.1in /  1019.3hPa NW 4mph /  6.4km/h 12mph /  19.3km/h 74% 0in /  0.0mm 392 W/m2
09:41 68.7 °F /  20.4 °C 60.4 °F /  15.8 °C 30.1in /  1019.3hPa West 8.9mph /  14.3km/h 10mph /  16.1km/h 75% 0in /  0.0mm 520 W/m2
09:46 68.9 °F /  20.5 °C 59.9 °F /  15.5 °C 30.1in /  1019.3hPa North 2.9mph /  4.7km/h 12mph /  19.3km/h 73% 0in /  0.0mm 462 W/m2
09:51 69.3 °F /  20.7 °C 60.3 °F /  15.7 °C 30.1in /  1019.3hPa West 4mph /  6.4km/h 9mph /  14.5km/h 73% 0in /  0.0mm 540 W/m2
09:56 69.6 °F /  20.9 °C 60.3 °F /  15.7 °C 30.1in /  1019.3hPa WNW 6.9mph /  11.1km/h 10mph /  16.1km/h 72% 0in /  0.0mm 526 W/m2
10:01 70 °F /  21.1 °C 60.1 °F /  15.6 °C 30.1in /  1019.3hPa WNW 4.9mph /  7.9km/h 9mph /  14.5km/h 71% 0in /  0.0mm 450 W/m2
10:06 70 °F /  21.1 °C 60.6 °F /  15.9 °C 30.1in /  1019.3hPa West 6.9mph /  11.1km/h 9mph /  14.5km/h 72% 0in /  0.0mm 492 W/m2
10:11 70.2 °F /  21.2 °C 60.3 °F /  15.7 °C 30.1in /  1019.0hPa West 6mph /  9.7km/h 10mph /  16.1km/h 71% 0in /  0.0mm 241 W/m2
10:16 70.3 °F /  21.3 °C 60.4 °F /  15.8 °C 30.1in /  1019.3hPa WNW 4mph /  6.4km/h 9mph /  14.5km/h 71% 0in /  0.0mm 601 W/m2
10:21 70.9 °F /  21.6 °C 60.3 °F /  15.7 °C 30.1in /  1019.3hPa West 2.9mph /  4.7km/h 5mph /  8km/h 69% 0in /  0.0mm 258 W/m2
10:26 71.1 °F /  21.7 °C 60.4 °F /  15.8 °C 30.1in /  1019.3hPa WSW 4mph /  6.4km/h 8mph /  12.9km/h 69% 0in /  0.0mm 696 W/m2
10:31 71.1 °F /  21.7 °C 59.2 °F /  15.1 °C 30.1in /  1019.3hPa WNW 4mph /  6.4km/h 12mph /  19.3km/h 66% 0in /  0.0mm 605 W/m2
10:36 70.7 °F /  21.5 °C 58.8 °F /  14.9 °C 30.1in /  1019.0hPa West 4mph /  6.4km/h 10mph /  16.1km/h 66% 0in /  0.0mm 506 W/m2
10:41 70.7 °F /  21.5 °C 59.5 °F /  15.3 °C 30.1in /  1019.0hPa WNW 2.9mph /  4.7km/h 12mph /  19.3km/h 68% 0in /  0.0mm 629 W/m2
10:46 71.2 °F /  21.8 °C 59.7 °F /  15.4 °C 30.1in /  1019.0hPa WSW 6.9mph /  11.1km/h 10mph /  16.1km/h 67% 0in /  0.0mm 735 W/m2
10:51 71.4 °F /  21.9 °C 59.5 °F /  15.3 °C 30.1in /  1019.0hPa WNW 2.9mph /  4.7km/h 9mph /  14.5km/h 66% 0in /  0.0mm 679 W/m2
10:56 71.8 °F /  22.1 °C 60.3 °F /  15.7 °C 30.1in /  1019.0hPa WNW 2.9mph /  4.7km/h 10mph /  16.1km/h 67% 0in /  0.0mm 661 W/m2
11:01 72 °F /  22.2 °C 59.2 °F /  15.1 °C 30.1in /  1019.3hPa WSW 6.9mph /  11.1km/h 8mph /  12.9km/h 64% 0in /  0.0mm 682 W/m2
11:06 72.1 °F /  22.3 °C 58.5 °F /  14.7 °C 30.1in /  1019.3hPa West 6mph /  9.7km/h 13mph /  20.9km/h 62% 0in /  0.0mm 575 W/m2
11:11 72 °F /  22.2 °C 59.2 °F /  15.1 °C 30.1in /  1019.3hPa NW 4mph /  6.4km/h 11mph /  17.7km/h 64% 0in /  0.0mm 656 W/m2
11:16 72 °F /  22.2 °C 58.6 °F /  14.8 °C 30.1in /  1019.3hPa WSW 6.9mph /  11.1km/h 13mph /  20.9km/h 63% 0in /  0.0mm 482 W/m2
11:21 72.1 °F /  22.3 °C 58.5 °F /  14.7 °C 30.1in /  1019.3hPa NNW 6mph /  9.7km/h 11mph /  17.7km/h 62% 0in /  0.0mm 666 W/m2
11:26 72.1 °F /  22.3 °C 58.5 °F /  14.7 °C 30.1in /  1019.3hPa WNW 4.9mph /  7.9km/h 13mph /  20.9km/h 62% 0in /  0.0mm 729 W/m2
11:31 72.3 °F /  22.4 °C 58.1 °F /  14.5 °C 30.1in /  1019.3hPa West 4mph /  6.4km/h 8mph /  12.9km/h 61% 0in /  0.0mm 480 W/m2
11:36 72.7 °F /  22.6 °C 58.8 °F /  14.9 °C 30.1in /  1019.3hPa West 6mph /  9.7km/h 11mph /  17.7km/h 62% 0in /  0.0mm 737 W/m2
11:41 72.3 °F /  22.4 °C 58.1 °F /  14.5 °C 30.1in /  1019.6hPa WSW 6.9mph /  11.1km/h 12mph /  19.3km/h 61% 0in /  0.0mm 503 W/m2
11:46 72.3 °F /  22.4 °C 59 °F /  15 °C 30.1in /  1019.6hPa West 8.9mph /  14.3km/h 9mph /  14.5km/h 63% 0in /  0.0mm 696 W/m2
11:51 72.9 °F /  22.7 °C 59 °F /  15 °C 30.1in /  1019.6hPa WSW 10.1mph /  16.3km/h 10mph /  16.1km/h 62% 0in /  0.0mm 652 W/m2
11:56 72.9 °F /  22.7 °C 58.6 °F /  14.8 °C 30.1in /  1019.6hPa WNW 6.9mph /  11.1km/h 10mph /  16.1km/h 61% 0in /  0.0mm 726 W/m2
12:01 73 °F /  22.8 °C 59.7 °F /  15.4 °C 30.1in /  1019.6hPa WNW 4.9mph /  7.9km/h 11mph /  17.7km/h 63% 0in /  0.0mm 773 W/m2
12:06 73.4 °F /  23 °C 59.2 °F /  15.1 °C 30.1in /  1019.6hPa WSW 4.9mph /  7.9km/h 8mph /  12.9km/h 61% 0in /  0.0mm 738 W/m2
12:11 73.6 °F /  23.1 °C 59.7 °F /  15.4 °C 30.1in /  1019.6hPa NW 4mph /  6.4km/h 9mph /  14.5km/h 62% 0in /  0.0mm 802 W/m2
12:16 73.8 °F /  23.2 °C 60.4 °F /  15.8 °C 30.1in /  1019.6hPa NW 4.9mph /  7.9km/h 14mph /  22.5km/h 63% 0in /  0.0mm 858 W/m2
12:21 73.8 °F /  23.2 °C 60.4 °F /  15.8 °C 30.1in /  1019.6hPa WNW 10.1mph /  16.3km/h 10mph /  16.1km/h 63% 0in /  0.0mm 896 W/m2
12:26 73.9 °F /  23.3 °C 60.6 °F /  15.9 °C 30.1in /  1019.6hPa West 4mph /  6.4km/h 14mph /  22.5km/h 63% 0in /  0.0mm 853 W/m2
12:31 74.1 °F /  23.4 °C 60.3 °F /  15.7 °C 30.1in /  1019.6hPa West 10.1mph /  16.3km/h 14mph /  22.5km/h 62% 0in /  0.0mm 902 W/m2
12:36 74.5 °F /  23.6 °C 60.6 °F /  15.9 °C 30.1in /  1019.6hPa NW 4mph /  6.4km/h 8mph /  12.9km/h 62% 0in /  0.0mm 875 W/m2
12:41 75.2 °F /  24 °C 59.4 °F /  15.2 °C 30.1in /  1019.6hPa WNW 10.1mph /  16.3km/h 14mph /  22.5km/h 58% 0in /  0.0mm 879 W/m2
12:46 74.8 °F /  23.8 °C 59.5 °F /  15.3 °C 30.1in /  1019.6hPa WSW 8.1mph /  13km/h 15mph /  24.1km/h 59% 0in /  0.0mm 861 W/m2
12:51 74.5 °F /  23.6 °C 59.7 °F /  15.4 °C 30.1in /  1019.6hPa WNW 8.1mph /  13km/h 15mph /  24.1km/h 60% 0in /  0.0mm 918 W/m2
12:56 74.1 °F /  23.4 °C 59.7 °F /  15.4 °C 30.1in /  1019.6hPa West 6.9mph /  11.1km/h 13mph /  20.9km/h 61% 0in /  0.0mm 912 W/m2
13:01 74.7 °F /  23.7 °C 60.8 °F /  16 °C 30.1in /  1019.6hPa WSW 4.9mph /  7.9km/h 8mph /  12.9km/h 62% 0in /  0.0mm 1007 W/m2
13:07 74.5 °F /  23.6 °C 60.6 °F /  15.9 °C 30.1in /  1019.6hPa West 8.1mph /  13km/h 8mph /  12.9km/h 62% 0in /  0.0mm 339 W/m2
13:12 74.5 °F /  23.6 °C 60.1 °F /  15.6 °C 30.1in /  1019.6hPa NNE 2mph /  3.2km/h 12mph /  19.3km/h 61% 0in /  0.0mm 858 W/m2
13:17 74.5 °F /  23.6 °C 61 °F /  16.1 °C 30.1in /  1019.6hPa West 8.9mph /  14.3km/h 12mph /  19.3km/h 63% 0in /  0.0mm 858 W/m2
13:22 74.5 °F /  23.6 °C 60.6 °F /  15.9 °C 30.1in /  1019.6hPa NW 8.1mph /  13km/h 11mph /  17.7km/h 62% 0in /  0.0mm 308 W/m2
13:27 73.9 °F /  23.3 °C 60.1 °F /  15.6 °C 30.1in /  1019.6hPa West 8.9mph /  14.3km/h 14mph /  22.5km/h 62% 0in /  0.0mm 926 W/m2
13:32 74.1 °F /  23.4 °C 60.3 °F /  15.7 °C 30.1in /  1019.6hPa WNW 4.9mph /  7.9km/h 11mph /  17.7km/h 62% 0in /  0.0mm 290 W/m2
13:37 74.1 °F /  23.4 °C 61.2 °F /  16.2 °C 30.1in /  1019.6hPa NNW 8.1mph /  13km/h 14mph /  22.5km/h 64% 0in /  0.0mm 309 W/m2
13:42 74.5 °F /  23.6 °C 60.6 °F /  15.9 °C 30.1in /  1019.6hPa WNW 4mph /  6.4km/h 8mph /  12.9km/h 62% 0in /  0.0mm 912 W/m2
13:47 74.8 °F /  23.8 °C 61 °F /  16.1 °C 30.1in /  1019.6hPa North 2mph /  3.2km/h 11mph /  17.7km/h 62% 0in /  0.0mm 946 W/m2
13:52 75.6 °F /  24.2 °C 59.2 °F /  15.1 °C 30.1in /  1019.6hPa NW 6.9mph /  11.1km/h 9mph /  14.5km/h 57% 0in /  0.0mm 842 W/m2
13:57 75 °F /  23.9 °C 59.2 °F /  15.1 °C 30.1in /  1019.6hPa WNW 4.9mph /  7.9km/h 9mph /  14.5km/h 58% 0in /  0.0mm 476 W/m2
14:02 74.8 °F /  23.8 °C 60.4 °F /  15.8 °C 30.1in /  1019.6hPa WNW 2mph /  3.2km/h 8mph /  12.9km/h 61% 0in /  0.0mm 304 W/m2
14:07 74.7 °F /  23.7 °C 59.9 °F /  15.5 °C 30.1in /  1019.6hPa West 10.1mph /  16.3km/h 10mph /  16.1km/h 60% 0in /  0.0mm 236 W/m2
14:12 74.1 °F /  23.4 °C 59.4 °F /  15.2 °C 30.1in /  1019.6hPa WSW 8.1mph /  13km/h 11mph /  17.7km/h 60% 0in /  0.0mm 185 W/m2
14:17 73.8 °F /  23.2 °C 60.4 °F /  15.8 °C 30.1in /  1019.6hPa WNW 2.9mph /  4.7km/h 6mph /  9.7km/h 63% 0in /  0.0mm 274 W/m2
14:22 73.9 °F /  23.3 °C 60.6 °F /  15.9 °C 30.1in /  1019.6hPa NW 4.9mph /  7.9km/h 11mph /  17.7km/h 63% 0in /  0.0mm 415 W/m2
14:27 74.1 °F /  23.4 °C 60.8 °F /  16 °C 30.1in /  1019.6hPa West 2.9mph /  4.7km/h 9mph /  14.5km/h 63% 0in /  0.0mm 573 W/m2
14:32 74.3 °F /  23.5 °C 60.8 °F /  16 °C 30.1in /  1019.6hPa West 6.9mph /  11.1km/h 9mph /  14.5km/h 63% 0in /  0.0mm 390 W/m2
14:37 74.1 °F /  23.4 °C 60.8 °F /  16 °C 30.1in /  1019.6hPa NW 2.9mph /  4.7km/h 9mph /  14.5km/h 63% 0in /  0.0mm 424 W/m2
Juneau County Weather
Compliments of Weather Underground - 2 mb